Time;durP1;ratioP1;P1;durP2;ratioP2;P2;SDS_P1;SDS_P2;PMS_P1;PMS_P2;Temp;Humidity;BMP_temperature;BMP_pressure;BME280_temperature;BME280_humidity;BME280_pressure;Samples;Min_cycle;Max_cycle;Signal;HPM_P1;HPM_P2
2021/04/16 00:00:35;;;;;;;43.60;20.38;;;;;;;-1.38;81.50;101276.03;4975761;28;20121;-63
2021/04/16 00:03:00;;;;;;;93.78;38.55;;;;;;;-1.40;80.97;101281.47;4989625;28;20030;-63
2021/04/16 00:05:26;;;;;;;133.77;53.08;;;;;;;-1.42;81.42;101282.56;4985418;28;20519;-63
2021/04/16 00:07:53;;;;;;;71.40;32.45;;;;;;;-1.29;80.19;101285.03;4986326;28;20133;-63
2021/04/16 00:10:33;;;;;;;49.65;22.40;;;;;;;-1.10;80.04;101274.63;4977362;28;20039;-64
2021/04/16 00:13:00;;;;;;;35.78;15.68;;;;;;;-0.97;79.58;101274.41;4986750;28;20089;-63
2021/04/16 00:15:27;;;;;;;41.05;19.00;;;;;;;-1.05;79.17;101271.56;4980014;28;20062;-63
2021/04/16 00:17:53;;;;;;;37.45;17.52;;;;;;;-1.26;80.24;101271.56;4993514;28;20054;-65
2021/04/16 00:20:23;;;;;;;36.47;18.33;;;;;;;-1.40;80.59;101267.41;4997041;28;20034;-63
2021/04/16 00:22:49;;;;;;;42.45;18.23;;;;;;;-1.51;81.42;101263.03;4983595;28;20085;-63
2021/04/16 00:25:19;;;;;;;41.55;16.85;;;;;;;-1.61;81.67;101257.63;4989651;28;20034;-64
2021/04/16 00:27:45;;;;;;;25.40;12.95;;;;;;;-1.63;82.03;101256.91;4972415;28;20046;-63
2021/04/16 00:30:11;;;;;;;23.50;11.65;;;;;;;-1.68;82.19;101256.44;4974890;28;20113;-63
2021/04/16 00:32:38;;;;;;;20.63;11.65;;;;;;;-1.70;82.91;101258.38;4980272;28;20043;-63
2021/04/16 00:35:06;;;;;;;20.38;10.25;;;;;;;-1.71;82.64;101257.56;4985846;28;20133;-62
2021/04/16 00:37:31;;;;;;;18.48;9.77;;;;;;;-1.73;82.96;101248.06;4978653;28;20534;-63
2021/04/16 00:39:57;;;;;;;13.73;8.55;;;;;;;-1.78;82.82;101251.91;4987330;28;20030;-63
2021/04/16 00:42:22;;;;;;;19.35;9.40;;;;;;;-1.72;82.54;101244.47;4983675;28;20027;-63
2021/04/16 00:44:48;;;;;;;18.50;7.95;;;;;;;-1.63;81.72;101241.91;4989460;28;20121;-63
2021/04/16 00:47:17;;;;;;;16.60;7.90;;;;;;;-1.75;82.44;101250.84;4984266;28;20129;-63
2021/04/16 00:49:47;;;;;;;14.23;7.57;;;;;;;-1.82;82.88;101247.00;4985739;28;20069;-63
2021/04/16 00:52:20;;;;;;;12.85;7.75;;;;;;;-1.85;82.85;101253.38;4974589;28;20031;-63
2021/04/16 00:54:46;;;;;;;13.27;8.52;;;;;;;-1.68;81.54;101246.75;4983779;28;20038;-63
2021/04/16 00:57:13;;;;;;;14.02;7.00;;;;;;;-1.77;81.83;101250.97;4979943;28;20034;-63
2021/04/16 00:59:46;;;;;;;14.15;7.25;;;;;;;-1.85;82.93;101237.53;4985460;28;20069;-63
2021/04/16 01:02:12;;;;;;;16.07;8.23;;;;;;;-1.85;82.26;101231.41;4973151;28;20043;-63
2021/04/16 01:04:38;;;;;;;15.90;7.30;;;;;;;-1.92;82.92;101239.00;4980505;28;20379;-63
2021/04/16 01:07:06;;;;;;;13.00;6.22;;;;;;;-1.98;83.35;101236.84;4975418;28;20117;-63
2021/04/16 01:09:32;;;;;;;11.07;6.25;;;;;;;-1.97;83.10;101238.53;4983754;28;20531;-63
2021/04/16 01:11:58;;;;;;;17.20;6.20;;;;;;;-1.92;82.35;101233.72;4972598;28;20058;-62
2021/04/16 01:14:24;;;;;;;12.57;6.47;;;;;;;-1.93;82.49;101234.66;4976394;28;20041;-62
2021/04/16 01:16:51;;;;;;;11.32;6.45;;;;;;;-1.91;82.35;101230.09;4977383;28;20077;-62
2021/04/16 01:19:45;;;;;;;10.95;6.30;;;;;;;-1.86;82.33;101232.34;4981154;28;20504;-62
2021/04/16 01:22:26;;;;;;;9.75;5.82;;;;;;;-2.01;83.00;101239.72;4974738;28;20035;-63
2021/04/16 01:24:58;;;;;;;12.27;5.50;;;;;;;-2.08;83.10;101227.03;4984059;28;20041;-63
2021/04/16 01:27:28;;;;;;;13.18;5.72;;;;;;;-2.10;83.39;101222.81;4985254;28;20043;-63
2021/04/16 01:29:55;;;;;;;12.57;6.45;;;;;;;-2.17;83.78;101238.31;4979899;28;20388;-63
2021/04/16 01:32:29;;;;;;;11.30;6.15;;;;;;;-2.21;84.24;101234.25;4980010;28;20361;-63
2021/04/16 01:34:55;;;;;;;13.15;6.60;;;;;;;-2.22;84.67;101230.75;4985297;28;20092;-63
2021/04/16 01:37:22;;;;;;;13.55;6.20;;;;;;;-2.23;84.30;101225.59;4982666;28;20049;-63
2021/04/16 01:39:47;;;;;;;12.93;6.95;;;;;;;-2.26;84.54;101220.56;4987846;28;20027;-64
2021/04/16 01:42:13;;;;;;;8.18;6.03;;;;;;;-2.24;85.02;101223.94;4989212;28;20092;-63
2021/04/16 01:44:44;;;;;;;13.35;6.60;;;;;;;-2.22;84.69;101220.19;4989834;28;20121;-64
2021/04/16 01:47:12;;;;;;;11.90;6.13;;;;;;;-2.21;85.12;101226.31;4992732;28;20034;-63
2021/04/16 01:49:40;;;;;;;10.98;6.35;;;;;;;-2.22;84.96;101228.13;4992246;28;20038;-63
2021/04/16 01:52:11;;;;;;;19.48;6.57;;;;;;;-2.09;84.49;101230.63;4987488;28;20096;-63
2021/04/16 01:54:44;;;;;;;11.43;6.25;;;;;;;-2.03;83.42;101225.81;4988277;28;20091;-63
2021/04/16 01:57:15;;;;;;;8.98;5.32;;;;;;;-2.03;82.85;101228.47;4987039;28;20354;-66
2021/04/16 01:59:44;;;;;;;17.83;5.90;;;;;;;-2.14;83.92;101231.94;4988074;28;20043;-63
2021/04/16 02:02:13;;;;;;;11.18;5.28;;;;;;;-2.18;84.36;101228.72;4988240;28;20068;-61
2021/04/16 02:04:39;;;;;;;13.98;6.15;;;;;;;-2.20;84.87;101222.72;4990841;28;20444;-61
2021/04/16 02:07:06;;;;;;;11.30;6.40;;;;;;;-2.06;84.58;101222.47;4992271;28;20046;-61
2021/04/16 02:09:35;;;;;;;10.57;5.38;;;;;;;-2.08;83.97;101224.38;4992169;28;20076;-62
2021/04/16 02:12:01;;;;;;;9.13;5.78;;;;;;;-2.16;84.40;101213.59;4986323;28;20034;-64
2021/04/16 02:14:29;;;;;;;12.23;7.45;;;;;;;-2.09;83.11;101217.44;4979597;28;20065;-61
2021/04/16 02:16:58;;;;;;;11.48;5.38;;;;;;;-2.22;83.84;101214.91;4983071;28;20034;-61
2021/04/16 02:19:24;;;;;;;13.30;7.55;;;;;;;-1.99;84.18;101217.50;4972085;28;20500;-61
2021/04/16 02:21:50;;;;;;;12.95;6.55;;;;;;;-1.94;83.12;101222.44;4984824;28;20030;-64
2021/04/16 02:24:16;;;;;;;12.60;6.57;;;;;;;-2.01;82.72;101222.06;4981532;28;20500;-62
2021/04/16 02:26:42;;;;;;;16.60;5.95;;;;;;;-2.12;82.64;101212.38;4987663;28;20504;-63
2021/04/16 02:29:11;;;;;;;11.52;6.03;;;;;;;-2.19;83.19;101219.13;4986276;28;20125;-63
2021/04/16 02:31:42;;;;;;;17.98;6.05;;;;;;;-2.33;83.83;101219.38;4983339;28;20543;-63
2021/04/16 02:34:19;;;;;;;13.57;6.85;;;;;;;-2.42;84.31;101219.16;4983225;28;20039;-62
2021/04/16 02:36:45;;;;;;;13.35;6.75;;;;;;;-2.48;84.58;101219.63;4992148;28;20042;-63
2021/04/16 02:39:12;;;;;;;16.02;7.47;;;;;;;-2.24;85.17;101224.75;4967684;28;20042;-63
2021/04/16 02:41:37;;;;;;;8.75;5.55;;;;;;;-2.30;84.15;101227.88;4988086;28;20042;-62
2021/04/16 02:44:04;;;;;;;12.38;6.28;;;;;;;-2.40;84.48;101217.22;4987309;28;20027;-64
2021/04/16 02:46:30;;;;;;;12.27;6.50;;;;;;;-2.44;84.69;101221.06;4984359;28;20034;-63
2021/04/16 02:48:56;;;;;;;16.25;6.60;;;;;;;-2.27;83.65;101224.19;4984684;28;20046;-61
2021/04/16 02:51:21;;;;;;;14.48;5.55;;;;;;;-2.36;83.25;101231.88;4988097;28;20033;-61
2021/04/16 02:53:47;;;;;;;12.60;5.75;;;;;;;-2.47;83.93;101221.31;4979961;28;20196;-63
2021/04/16 02:56:13;;;;;;;14.07;6.70;;;;;;;-2.54;84.77;101222.75;4973547;28;20034;-63
2021/04/16 02:58:39;;;;;;;15.57;6.75;;;;;;;-2.52;84.49;101221.66;4991993;28;20030;-63
2021/04/16 03:01:05;;;;;;;12.82;6.80;;;;;;;-2.46;83.74;101216.88;4984549;28;20081;-63
2021/04/16 03:03:31;;;;;;;12.85;7.03;;;;;;;-2.40;83.92;101229.56;4979959;28;20133;-64
2021/04/16 03:05:56;;;;;;;9.20;5.63;;;;;;;-2.51;83.63;101218.06;4987398;28;20472;-63
2021/04/16 03:08:22;;;;;;;16.42;5.95;;;;;;;-2.60;84.05;101221.41;4982201;28;20034;-63
2021/04/16 03:10:49;;;;;;;8.25;5.68;;;;;;;-2.68;84.73;101226.47;4986809;28;20090;-63
2021/04/16 03:13:16;;;;;;;10.50;5.45;;;;;;;-2.75;85.12;101226.06;4979959;28;20480;-62
2021/04/16 03:15:42;;;;;;;15.38;7.22;;;;;;;-2.61;85.86;101224.19;4980539;28;20042;-62
2021/04/16 03:18:08;;;;;;;15.73;7.18;;;;;;;-2.51;84.94;101225.16;4970283;28;20042;-62
2021/04/16 03:20:34;;;;;;;17.85;6.50;;;;;;;-2.53;84.65;101224.44;4984932;28;20035;-62
2021/04/16 03:22:59;;;;;;;13.32;6.07;;;;;;;-2.63;84.94;101232.22;4971527;28;20468;-62
2021/04/16 03:25:25;;;;;;;9.52;5.85;;;;;;;-2.65;85.15;101223.59;4982672;28;20121;-63
2021/04/16 03:27:51;;;;;;;14.40;7.53;;;;;;;-2.45;85.01;101218.53;4981985;28;20053;-63
2021/04/16 03:30:20;;;;;;;15.85;7.38;;;;;;;-2.59;84.79;101217.00;4982071;28;20039;-63
2021/04/16 03:32:46;;;;;;;22.25;7.80;;;;;;;-2.68;84.66;101221.19;4978365;28;20038;-63
2021/04/16 03:35:13;;;;;;;13.23;7.05;;;;;;;-2.76;85.45;101224.41;4991846;28;20022;-63
2021/04/16 03:37:39;;;;;;;12.75;6.75;;;;;;;-2.77;85.40;101225.34;4987564;28;20075;-62
2021/04/16 03:40:08;;;;;;;10.35;6.50;;;;;;;-2.80;85.22;101220.31;4979633;28;20062;-62
2021/04/16 03:42:33;;;;;;;15.32;6.78;;;;;;;-2.87;85.68;101221.75;4985076;28;20039;-62
2021/04/16 03:44:59;;;;;;;10.32;6.25;;;;;;;-2.88;85.78;101227.97;4982489;28;20089;-62
2021/04/16 03:47:25;;;;;;;9.95;6.55;;;;;;;-2.90;85.80;101222.84;4977836;28;20038;-62
2021/04/16 03:49:50;;;;;;;11.27;6.03;;;;;;;-2.93;86.23;101220.44;4974197;28;20642;-62
2021/04/16 03:52:23;;;;;;;12.95;7.38;;;;;;;-2.76;86.15;101216.50;4981724;28;20501;-62
2021/04/16 03:54:49;;;;;;;9.85;5.35;;;;;;;-2.86;85.83;101210.25;4973993;28;20066;-62
2021/04/16 03:57:15;;;;;;;8.82;4.80;;;;;;;-2.92;85.68;101221.25;4977442;28;20092;-65
2021/04/16 03:59:40;;;;;;;12.93;6.82;;;;;;;-2.83;86.09;101221.41;4979497;28;20039;-64
2021/04/16 04:02:06;;;;;;;10.18;5.28;;;;;;;-2.90;85.70;101221.97;4987347;28;20023;-62
2021/04/16 04:04:32;;;;;;;13.27;5.78;;;;;;;-2.94;85.94;101231.94;4989735;28;20042;-61
2021/04/16 04:06:58;;;;;;;10.73;6.07;;;;;;;-2.98;86.48;101223.41;4977401;28;20042;-62
2021/04/16 04:09:23;;;;;;;13.13;6.68;;;;;;;-3.00;86.70;101222.69;4991163;28;20039;-61
2021/04/16 04:11:49;;;;;;;14.10;5.95;;;;;;;-2.99;86.59;101226.19;4983470;28;20435;-63
2021/04/16 04:14:15;;;;;;;15.63;6.68;;;;;;;-3.05;86.44;101224.00;4989055;28;20412;-63
2021/04/16 04:17:00;;;;;;;9.13;6.28;;;;;;;-3.07;87.00;101226.75;4988890;28;20038;-63
2021/04/16 04:19:28;;;;;;;12.32;5.47;;;;;;;-3.11;87.08;101228.78;4974491;28;20030;-63
2021/04/16 04:21:55;;;;;;;17.48;6.72;;;;;;;-3.06;87.23;101228.44;4973149;28;20054;-64
2021/04/16 04:24:22;;;;;;;10.20;5.38;;;;;;;-3.12;86.92;101227.13;4977411;28;20089;-63
2021/04/16 04:26:48;;;;;;;12.52;6.60;;;;;;;-2.96;86.88;101225.94;4981466;28;20031;-63
2021/04/16 04:29:16;;;;;;;9.88;5.43;;;;;;;-2.97;86.17;101229.53;4972301;28;20035;-63
2021/04/16 04:31:48;;;;;;;16.13;6.22;;;;;;;-2.99;86.43;101221.72;4970621;28;20035;-61
2021/04/16 04:34:17;;;;;;;12.00;6.35;;;;;;;-3.07;85.86;101218.84;4982098;28;20046;-61
2021/04/16 04:36:43;;;;;;;14.75;6.15;;;;;;;-3.11;86.28;101214.75;4990537;28;20113;-62
2021/04/16 04:39:09;;;;;;;14.77;5.60;;;;;;;-3.14;86.43;101217.63;4977728;28;20033;-61
2021/04/16 04:41:34;;;;;;;13.77;5.20;;;;;;;-3.16;87.14;101220.41;4980214;28;20034;-61
2021/04/16 04:44:00;;;;;;;13.10;6.38;;;;;;;-3.19;86.86;101215.38;4978437;28;20050;-63
2021/04/16 04:46:25;;;;;;;14.18;5.97;;;;;;;-3.21;87.38;101219.06;4977071;28;20026;-63
2021/04/16 04:48:51;;;;;;;10.50;6.28;;;;;;;-3.13;86.98;101208.78;4975493;28;20041;-63
2021/04/16 04:51:18;;;;;;;7.25;5.03;;;;;;;-3.19;86.72;101215.38;4974360;28;20451;-63
2021/04/16 04:53:43;;;;;;;16.90;6.68;;;;;;;-3.18;87.14;101213.56;4975700;28;20034;-63
2021/04/16 04:56:09;;;;;;;19.88;6.80;;;;;;;-3.18;87.71;101214.41;4986723;28;20037;-62
2021/04/16 04:58:35;;;;;;;12.55;6.55;;;;;;;-3.16;87.83;101214.28;4979022;28;20072;-62
2021/04/16 05:01:00;;;;;;;14.65;7.10;;;;;;;-3.13;88.00;101217.53;4976730;28;20127;-62
2021/04/16 05:03:26;;;;;;;9.68;6.32;;;;;;;-3.07;88.01;101223.28;4986161;28;20081;-69
2021/04/16 05:05:52;;;;;;;12.73;6.22;;;;;;;-2.99;87.41;101219.09;4991982;28;20176;-70
2021/04/16 05:08:17;;;;;;;12.48;6.70;;;;;;;-2.92;87.51;101218.63;4983368;28;20534;-70
2021/04/16 05:10:43;;;;;;;15.40;6.72;;;;;;;-2.84;87.12;101217.09;4988900;28;20508;-69
2021/04/16 05:13:09;;;;;;;15.10;7.35;;;;;;;-2.86;87.51;101221.66;4987620;28;20023;-69
2021/04/16 05:15:35;;;;;;;17.90;6.85;;;;;;;-2.87;87.49;101216.47;4989233;28;20033;-69
2021/04/16 05:18:00;;;;;;;11.52;6.15;;;;;;;-2.85;87.36;101219.84;4980316;28;20041;-65
2021/04/16 05:20:26;;;;;;;16.20;6.88;;;;;;;-2.89;87.52;101219.25;4989547;28;20395;-66
2021/04/16 05:22:52;;;;;;;18.77;6.03;;;;;;;-2.87;87.68;101217.34;4975664;28;20480;-67
2021/04/16 05:25:18;;;;;;;14.95;7.65;;;;;;;-2.86;87.92;101211.09;4994521;28;20519;-64
2021/04/16 05:27:43;;;;;;;10.90;6.75;;;;;;;-2.84;88.03;101213.59;4976868;28;20496;-64
2021/04/16 05:30:10;;;;;;;18.33;7.15;;;;;;;-2.82;87.68;101217.81;4979712;28;20436;-64
2021/04/16 05:32:35;;;;;;;20.27;7.22;;;;;;;-2.80;87.85;101218.53;4978040;28;20034;-64
2021/04/16 05:35:03;;;;;;;12.38;7.20;;;;;;;-2.74;87.68;101217.22;4987101;28;20030;-64
2021/04/16 05:37:28;;;;;;;18.27;7.13;;;;;;;-2.66;87.63;101216.63;4979816;28;20451;-64
2021/04/16 05:39:54;;;;;;;22.98;9.05;;;;;;;-2.31;87.21;101222.75;4980300;28;20031;-64
2021/04/16 05:42:20;;;;;;;15.05;7.75;;;;;;;-2.36;86.67;101225.72;4985736;28;20089;-64
2021/04/16 05:44:46;;;;;;;22.35;7.88;;;;;;;-2.24;86.87;101226.56;4985245;28;20441;-64
2021/04/16 05:47:12;;;;;;;15.43;7.43;;;;;;;-2.24;86.26;101224.75;4635271;28;10000658;-64
2021/04/16 05:49:39;;;;;;;13.63;7.57;;;;;;;-2.27;86.27;101227.63;4980524;28;20034;-64
2021/04/16 05:52:05;;;;;;;20.33;7.45;;;;;;;-2.25;86.42;101227.53;4975356;28;20412;-64
2021/04/16 05:54:33;;;;;;;18.38;7.20;;;;;;;-2.22;86.42;101219.38;4982894;28;21513;-64
2021/04/16 05:56:58;;;;;;;14.95;7.97;;;;;;;-2.21;86.29;101221.88;4984370;28;20669;-65
2021/04/16 05:59:24;;;;;;;25.73;8.20;;;;;;;-2.12;86.37;101214.19;4982139;28;20114;-65
2021/04/16 06:01:50;;;;;;;17.80;6.97;;;;;;;-2.09;86.19;101221.84;4983342;28;20027;-63
2021/04/16 06:04:23;;;;;;;17.13;7.13;;;;;;;-2.04;86.48;101218.84;4990272;28;20612;-63
2021/04/16 06:06:48;;;;;;;20.60;8.00;;;;;;;-1.89;86.31;101225.53;4973904;28;20045;-64
2021/04/16 06:09:15;;;;;;;24.05;8.68;;;;;;;-1.88;85.80;101221.09;4979013;28;20050;-66
2021/04/16 06:11:41;;;;;;;14.40;7.53;;;;;;;-1.82;85.81;101220.59;4974463;28;20038;-66
2021/04/16 06:14:07;;;;;;;22.55;9.13;;;;;;;-1.64;86.09;101223.53;4983113;28;20031;-66
2021/04/16 06:16:32;;;;;;;21.55;9.35;;;;;;;-1.47;85.31;101217.69;4964723;28;20039;-66
2021/04/16 06:18:58;;;;;;;33.42;10.48;;;;;;;-1.30;85.27;101225.22;4981413;28;20141;-65
2021/04/16 06:21:24;;;;;;;24.67;9.02;;;;;;;-1.22;84.68;101217.47;4975261;28;20097;-64
2021/04/16 06:23:50;;;;;;;16.48;8.77;;;;;;;-1.13;84.45;101223.78;4983651;28;20034;-67
2021/04/16 06:26:16;;;;;;;16.00;8.82;;;;;;;-1.09;84.19;101223.41;4988260;28;20143;-64
2021/04/16 06:28:42;;;;;;;12.40;7.47;;;;;;;-1.04;84.31;101220.34;4983547;28;20053;-65
2021/04/16 06:31:10;;;;;;;15.63;8.65;;;;;;;-0.97;84.40;101221.50;4976545;28;20041;-63
2021/04/16 06:33:38;;;;;;;10.18;6.90;;;;;;;-0.93;84.30;101222.09;4983341;28;20034;-65
2021/04/16 06:36:10;;;;;;;13.82;7.18;;;;;;;-0.91;84.55;101218.34;4982986;28;20472;-65
2021/04/16 06:38:38;;;;;;;15.73;7.65;;;;;;;-0.77;84.54;101221.66;4981563;28;20027;-62
2021/04/16 06:41:17;;;;;;;21.55;8.82;;;;;;;-0.50;84.44;101229.00;4982590;28;20027;-64
2021/04/16 06:43:49;;;;;;;14.88;8.75;;;;;;;-0.24;84.00;101233.00;4980693;28;20057;-63
2021/04/16 06:46:23;;;;;;;14.07;7.97;;;;;;;-0.09;82.98;101230.78;4979235;28;20173;-63
2021/04/16 06:48:49;;;;;;;18.55;8.50;;;;;;;0.02;83.43;101233.34;4989397;28;20137;-63
2021/04/16 06:51:20;;;;;;;18.30;8.48;;;;;;;0.14;82.90;101229.59;4977122;28;20061;-64
2021/04/16 06:54:02;;;;;;;18.13;8.88;;;;;;;0.33;82.48;101243.00;4985920;28;20030;-64
2021/04/16 06:56:39;;;;;;;15.35;8.77;;;;;;;0.50;82.32;101238.84;4988726;28;20786;-64
2021/04/16 06:59:27;;;;;;;13.73;8.77;;;;;;;0.62;81.29;101234.22;4980635;28;20553;-65
2021/04/16 07:02:01;;;;;;;20.27;7.80;;;;;;;0.65;80.82;101229.50;4986115;28;20042;-65
2021/04/16 07:04:50;;;;;;;17.90;7.63;;;;;;;0.83;80.55;101226.13;4980111;28;20034;-64
2021/04/16 07:07:36;;;;;;;11.25;7.05;;;;;;;0.95;80.02;101232.94;4983584;28;20116;-64
2021/04/16 07:10:09;;;;;;;13.93;7.30;;;;;;;0.99;80.14;101228.19;4979457;28;20034;-63
2021/04/16 07:12:35;;;;;;;12.98;7.18;;;;;;;1.09;80.21;101238.78;4977060;28;20499;-64
2021/04/16 07:15:08;;;;;;;14.07;7.82;;;;;;;1.25;80.13;101230.22;4986034;28;20038;-64
2021/04/16 07:17:41;;;;;;;13.48;7.38;;;;;;;1.25;80.46;101236.34;4979994;28;20436;-63
2021/04/16 07:20:09;;;;;;;12.85;4.20;;;;;;;1.39;83.66;101231.56;4987111;28;20038;-63
2021/04/16 07:22:52;;;;;;;13.00;6.07;;;;;;;1.72;82.21;101232.84;4968204;28;20044;-65
2021/04/16 07:25:27;;;;;;;17.77;6.13;;;;;;;1.94;82.42;101224.63;4985102;28;20038;-65
2021/04/16 07:27:56;;;;;;;11.00;5.40;;;;;;;2.24;79.41;101228.75;4983387;28;20296;-64
2021/04/16 07:30:44;;;;;;;12.10;6.10;;;;;;;2.32;77.94;101233.31;4979999;28;20117;-64
2021/04/16 07:33:27;;;;;;;20.20;5.93;;;;;;;2.47;78.46;101231.78;4991681;28;20039;-65
2021/04/16 07:36:13;;;;;;;4.47;1.17;;;;;;;2.41;79.41;101232.41;4978693;28;20031;-65
2021/04/16 07:38:39;;;;;;;6.20;1.40;;;;;;;2.35;80.29;101238.34;4974482;28;20027;-63
2021/04/16 07:41:55;;;;;;;6.50;1.42;;;;;;;2.57;80.44;101225.56;4978594;28;20366;-64
2021/04/16 07:44:36;;;;;;;6.07;2.03;;;;;;;3.08;78.21;101229.28;4999644;28;20042;-62
2021/04/16 07:47:13;;;;;;;4.38;1.35;;;;;;;3.02;77.46;101229.91;5007475;28;20041;-62
2021/04/16 07:49:53;;;;;;;8.35;1.30;;;;;;;3.00;77.23;101234.53;5009019;28;20068;-63
2021/04/16 07:52:40;;;;;;;5.15;1.05;;;;;;;3.36;74.49;101231.75;5000407;28;20041;-63
2021/04/16 07:55:11;;;;;;;5.20;1.25;;;;;;;3.45;72.94;101230.00;5006447;28;20053;-61
2021/04/16 07:57:39;;;;;;;2.22;1.38;;;;;;;3.41;73.86;101231.31;5006620;28;20038;-62
2021/04/16 08:00:23;;;;;;;9.63;2.22;;;;;;;3.61;73.89;101231.06;5007444;28;20558;-62
2021/04/16 08:03:13;;;;;;;7.18;1.30;;;;;;;3.87;71.21;101239.00;5001424;28;20093;-62
2021/04/16 08:05:56;;;;;;;4.25;1.73;;;;;;;3.96;71.06;101237.19;5007209;28;20141;-63
2021/04/16 08:08:24;;;;;;;5.30;2.20;;;;;;;3.97;70.69;101238.84;4992037;28;20045;-63
2021/04/16 08:11:05;;;;;;;6.85;1.52;;;;;;;4.09;69.99;101239.41;5003463;28;20480;-64
2021/04/16 08:13:31;;;;;;;10.15;2.33;;;;;;;4.03;71.04;101237.38;5002083;28;20052;-64
2021/04/16 08:16:34;;;;;;;7.32;1.95;;;;;;;4.05;70.26;101241.53;5006216;28;20180;-64
2021/04/16 08:19:18;;;;;;;7.20;1.85;;;;;;;3.96;69.70;101242.53;5004631;28;20050;-62
2021/04/16 08:21:51;;;;;;;11.07;1.77;;;;;;;4.01;70.01;101242.03;4984483;28;20035;-62
2021/04/16 08:24:21;;;;;;;6.93;2.08;;;;;;;3.97;69.45;101241.53;4979188;28;20408;-62
2021/04/16 08:27:00;;;;;;;9.02;2.05;;;;;;;4.00;69.51;101235.03;4985127;28;20089;-63
2021/04/16 08:29:46;;;;;;;11.20;2.30;;;;;;;4.00;68.77;101243.88;4982690;28;20023;-62
2021/04/16 08:32:40;;;;;;;3.42;1.77;;;;;;;4.45;66.81;101241.81;4984633;28;20152;-62
2021/04/16 08:35:12;;;;;;;;;;;;;;;4.46;67.00;101232.78;4984703;28;20061;-65
2021/04/16 08:37:43;;;;;;;6.57;1.58;;;;;;;4.51;65.65;101229.66;4976240;28;20019;-62
2021/04/16 08:40:13;;;;;;;6.00;1.83;;;;;;;4.79;64.72;101235.47;4982490;28;20054;-62
2021/04/16 08:42:39;;;;;;;6.72;1.70;;;;;;;4.89;63.73;101235.31;4988999;28;20049;-63
2021/04/16 08:45:16;;;;;;;5.30;1.60;;;;;;;5.11;62.88;101230.28;4988747;28;20061;-69
2021/04/16 08:47:58;;;;;;;5.15;2.00;;;;;;;5.06;62.97;101228.09;4988968;28;20053;-63
2021/04/16 08:50:29;;;;;;;4.93;1.60;;;;;;;5.14;62.30;101227.28;4976918;28;20046;-63
2021/04/16 08:52:59;;;;;;;3.15;1.60;;;;;;;5.16;61.57;101227.94;4975273;28;20097;-64
2021/04/16 08:55:30;;;;;;;11.85;1.85;;;;;;;5.46;61.93;101232.72;4994726;28;20176;-64
2021/04/16 08:57:58;;;;;;;7.60;1.50;;;;;;;5.47;59.80;101227.19;4984745;28;20042;-62
2021/04/16 09:00:33;;;;;;;2.78;1.50;;;;;;;5.28;60.58;101226.56;4978710;28;20538;-62
2021/04/16 09:03:02;;;;;;;5.43;1.98;;;;;;;5.41;62.11;101227.88;4973925;28;21892;-62
2021/04/16 09:05:30;;;;;;;9.57;2.25;;;;;;;5.48;60.24;101228.84;4987470;28;20029;-63
2021/04/16 09:08:01;;;;;;;4.43;2.00;;;;;;;5.75;60.91;101236.63;4981442;28;20476;-63
2021/04/16 09:10:30;;;;;;;6.43;1.65;;;;;;;5.78;59.84;101231.75;4631205;28;10000294;-62
2021/04/16 09:12:58;;;;;;;6.43;1.98;;;;;;;6.08;58.94;101237.28;4975409;28;20494;-63
2021/04/16 09:15:24;;;;;;;4.18;2.17;;;;;;;6.31;58.05;101236.53;4981732;28;20034;-66
2021/04/16 09:17:52;;;;;;;7.63;3.00;;;;;;;6.33;58.13;101237.19;4974089;28;20033;-65
2021/04/16 09:20:44;;;;;;;4.13;2.47;;;;;;;6.38;56.59;101241.97;4977639;28;20101;-64
2021/04/16 09:23:27;;;;;;;7.30;2.67;;;;;;;6.39;57.67;101232.94;5008259;28;20050;-64
2021/04/16 09:25:53;;;;;;;8.60;2.83;;;;;;;6.39;56.31;101249.00;5005880;28;20078;-65
2021/04/16 09:28:21;;;;;;;7.88;2.42;;;;;;;6.57;56.44;101235.34;5008840;28;20046;-64
2021/04/16 09:31:23;;;;;;;9.77;2.67;;;;;;;6.51;56.45;101231.50;5007998;28;20454;-65
2021/04/16 09:34:04;;;;;;;8.10;3.47;;;;;;;6.62;56.25;101238.31;4981413;28;20053;-64
2021/04/16 09:36:29;;;;;;;16.67;2.97;;;;;;;6.44;56.45;101242.13;5007055;28;20038;-64
2021/04/16 09:38:57;;;;;;;8.38;3.22;;;;;;;6.65;56.29;101234.41;5010174;28;20053;-64
2021/04/16 09:41:24;;;;;;;8.60;3.25;;;;;;;6.49;55.97;101236.22;5001650;28;20104;-64
2021/04/16 09:43:55;;;;;;;8.18;3.28;;;;;;;6.64;55.67;101233.59;5009451;28;20045;-65
2021/04/16 09:46:47;;;;;;;6.78;3.17;;;;;;;6.73;55.78;101240.56;5007241;28;20061;-64
2021/04/16 09:49:24;;;;;;;9.57;3.22;;;;;;;6.85;54.41;101237.44;4988264;28;20471;-64
2021/04/16 09:51:52;;;;;;;11.48;2.97;;;;;;;6.64;55.57;101240.78;5006919;28;20034;-64
2021/04/16 09:54:21;;;;;;;6.45;3.00;;;;;;;6.69;55.25;101241.06;5007192;28;20561;-64
2021/04/16 09:57:02;;;;;;;7.22;3.22;;;;;;;6.92;54.43;101240.22;5009226;28;20466;-65
2021/04/16 09:59:28;;;;;;;8.82;3.20;;;;;;;6.88;55.27;101239.75;4994644;28;20049;-64
2021/04/16 10:02:13;;;;;;;7.93;3.20;;;;;;;6.88;53.66;101229.88;4987645;28;20044;-64
2021/04/16 10:04:44;;;;;;;6.28;3.10;;;;;;;6.93;53.06;101231.16;4986147;28;20034;-64
2021/04/16 10:07:12;;;;;;;4.85;3.10;;;;;;;6.89;53.54;101228.84;4984404;28;20029;-64
2021/04/16 10:09:37;;;;;;;8.00;3.33;;;;;;;7.00;52.52;101219.56;4983668;28;20054;-65
2021/04/16 10:12:23;;;;;;;24.90;4.55;;;;;;;7.07;52.50;101222.34;4980126;28;20062;-64
2021/04/16 10:14:49;;;;;;;30.02;4.50;;;;;;;7.09;52.98;101220.31;4981894;28;20031;-64
2021/04/16 10:17:15;;;;;;;6.90;3.40;;;;;;;6.96;53.07;101228.97;4977275;28;20174;-64
2021/04/16 10:19:52;;;;;;;8.00;3.88;;;;;;;6.85;53.92;101219.50;4975245;28;20473;-64
2021/04/16 10:22:31;;;;;;;12.60;3.53;;;;;;;6.80;53.22;101215.72;4984215;28;20041;-63
2021/04/16 12:39:00;;;;;;;5.00;3.10;;;;;;;9.57;41.70;101118.13;5068668;28;20115;-63
2021/04/16 12:41:31;;;;;;;7.35;3.10;;;;;;;9.23;42.17;101116.13;5069654;28;20041;-65
2021/04/16 12:43:57;;;;;;;8.05;2.90;;;;;;;9.31;40.23;101117.00;5070441;28;20032;-64
2021/04/16 12:46:28;;;;;;;12.65;3.50;;;;;;;9.20;41.22;101113.00;5073349;28;20060;-65
2021/04/16 12:48:54;;;;;;;10.02;3.53;;;;;;;9.72;40.52;101116.09;5072605;28;20119;-64
2021/04/16 12:51:20;;;;;;;6.97;3.03;;;;;;;9.44;41.54;101105.44;5057582;28;20115;-65
2021/04/16 12:53:45;;;;;;;8.55;3.25;;;;;;;9.50;41.97;101104.63;5003722;28;20038;-64
2021/04/16 12:56:21;;;;;;;10.10;3.22;;;;;;;9.08;42.11;101110.06;4987166;28;20033;-65
2021/04/16 12:58:48;;;;;;;8.00;2.83;;;;;;;9.44;42.63;101118.88;4971580;28;20388;-64
2021/04/16 13:01:25;;;;;;;5.85;3.13;;;;;;;8.99;42.50;101119.31;4979341;28;20037;-63
2021/04/16 13:03:52;;;;;;;7.30;3.17;;;;;;;8.96;42.55;101106.28;4985578;28;20073;-64
2021/04/16 13:06:40;;;;;;;5.82;3.78;;;;;;;8.79;43.37;101106.56;4973678;28;20066;-65
2021/04/16 13:09:07;;;;;;;6.25;3.17;;;;;;;8.93;43.95;101104.81;4981737;28;20041;-65
2021/04/16 13:11:33;;;;;;;6.43;2.92;;;;;;;9.38;42.84;101109.78;4984441;28;20034;-62
2021/04/16 13:13:58;;;;;;;8.98;2.80;;;;;;;9.72;40.62;101104.50;4979739;28;20365;-64
2021/04/16 13:16:24;;;;;;;5.28;3.20;;;;;;;9.69;41.07;101100.38;4984394;28;20049;-64
2021/04/16 13:18:55;;;;;;;9.82;3.67;;;;;;;9.84;41.41;101091.28;4976104;28;20500;-64
2021/04/16 13:21:27;;;;;;;3.85;3.03;;;;;;;9.34;41.08;101101.28;4979139;28;20430;-64
2021/04/16 13:23:53;;;;;;;5.43;3.10;;;;;;;9.36;41.75;101098.41;4977537;28;20027;-64
2021/04/16 13:26:18;;;;;;;11.35;3.45;;;;;;;9.30;41.20;101094.63;4979303;28;20126;-65
2021/04/16 13:28:45;;;;;;;12.27;3.30;;;;;;;9.57;40.40;101094.72;4985272;28;20050;-64
2021/04/16 13:31:12;;;;;;;17.60;3.33;;;;;;;9.83;40.37;101093.16;4975981;28;20031;-64
2021/04/16 13:33:46;;;;;;;12.50;3.55;;;;;;;10.25;38.90;101093.81;4987489;28;20056;-64
2021/04/16 13:36:18;;;;;;;7.60;3.45;;;;;;;10.01;39.62;101086.34;4985926;28;20121;-64
2021/04/16 13:38:45;;;;;;;9.82;3.15;;;;;;;10.14;38.67;101089.06;4987109;28;20081;-64
2021/04/16 13:41:12;;;;;;;12.18;3.83;;;;;;;10.19;40.71;101085.72;4981856;28;20061;-64
2021/04/16 13:43:37;;;;;;;10.95;3.97;;;;;;;10.65;38.19;101079.53;4982163;28;20027;-63
2021/04/16 13:46:12;;;;;;;9.00;3.35;;;;;;;10.39;39.29;101085.72;4986225;28;20037;-63
2021/04/16 13:48:38;;;;;;;7.20;3.47;;;;;;;10.89;38.20;101079.88;4985826;28;20034;-64